BIKFBGKK

Guest
Details From BIKF - Keflavik
To BGKK - Kulusuk
Flight Number -
Tags generated
Created
Modified
Stats Distance 387 nm / 716 km
Max Altitude 35,000 ft / 10,668 m
Waypoints 5
Social Downloads 0
Likes 0
Share VATSIM

Download

Looking for another format? Having issues loading an existing format? Contact us
Advertisement - Login to hide

Notes

Basic altitude profile: - Ascent Rate: 2500ft/min - Ascent Speed: 250kts - Cruise Altitude: 25000ft - Cruise Speed: 420kts - Descent Rate: 1500ft/min - Descent Speed: 250kts Options: - Use NATs: yes - Use PACOTS: yes - Use low airways: yes - Use high airways: yes

Route

BIKF KEF 5E72 DA BGKK

ID Type Via Altitude Latitude Longitude Leg Dist Tot Dist Heading (true) Name
O BIKF APT - 0 ft / 0 m 63.98161˚ -22.61456˚ - 0 nm - Keflavik
KEF VOR - 100 ft / 30 m 63.98681˚ -22.61450˚ 0 nm 0 nm 0° / 0° KEFLAVIK VORTAC
GIMLI FIX 5E72 (AWY-HI) 35,000 ft / 10,668 m 64.64000˚ -26.97833˚ 120 nm 120 nm 291° / 287° -
DA NDB 5E72 (AWY-HI) 400 ft / 122 m 65.57056˚ -37.20694˚ 264 nm 384 nm 287° / 278° KULUSUK NDB
O BGKK APT - 0 ft / 0 m 65.57361˚ -37.12361˚ 2 nm 386 nm 85° / 85° Kulusuk

Altitude Profile

Advertisement - Login to hide

Weather


0- 5 10 15 20 25 30 35+ Temperature / ° C

Clouds and Precipitation
Forecast for 2018-06-23 00:00 UTC. Updated 4 hours ago

Ground ~20,000 ft ~40,000 ft Winds

BIKF

Details ICAO BIKF (KEF)
Name Keflavik
Region Iceland
Timezone Atlantic/Reykjavik (UTC+0.0)
Stats Elevation 170 ft / 52 m (AMSL)
Location 63.981612° -22.614563°
Runways 2
Magnetic Variation 13.929° W

METAR

BIKF 230130Z 16008KT 9999 FEW008 OVC012 07/06 Q1012

Decode

TAF

TAF BIKF 230127Z 2303/2403 16007KT 9999 FEW008 OVC011 TX10/2315Z TN07/2303Z BECMG 2306/2309 13017KT 7000 -DZ FEW005 OVC008 TEMPO 2310/2315 5000 RADZ BR FEW003 OVC005 BECMG 2317/2320 23010KT 9999 NSW FEW010 BKN020

Decode

Departure Runways

ID Width Length Bearing (true) Bearing (mag) Surface Threshold Offset Overrun Length
02 197 ft / 60 m 9,997 ft / 3,047 m 0.02° 13.95° Asphalt 0 ft / 0 m 492 ft / 150 m
11 197 ft / 60 m 10,022 ft / 3,055 m 89.97° 103.90° Asphalt 0 ft / 0 m 246 ft / 75 m
20 197 ft / 60 m 9,997 ft / 3,047 m 180.02° 193.95° Asphalt 0 ft / 0 m 98 ft / 30 m
29 197 ft / 60 m 10,022 ft / 3,055 m 270.02° 283.95° Asphalt 0 ft / 0 m 197 ft / 60 m

BGKK

Details ICAO BGKK
Name Kulusuk
Region Greenland
Timezone America/Godthab (UTC-2.0)
Stats Elevation 114 ft / 35 m (AMSL)
Location 65.573608° -37.123608°
Runways 1
Magnetic Variation 22.148° W

METAR

BGKK 230050Z AUTO 25003KT 9999NDV -RA OVC006/// 04/02 Q1005

Decode

TAF

Not found

Destination Runways

ID Width Length Bearing (true) Bearing (mag) Surface Threshold Offset Overrun Length
11 98 ft / 30 m 3,956 ft / 1,206 m 83.99° 106.14° Gravel 0 ft / 0 m 0 ft / 0 m
29 98 ft / 30 m 3,956 ft / 1,206 m 264.01° 286.16° Gravel 0 ft / 0 m 0 ft / 0 m

Popular Alternatives